sensor_id;sensor_type;location;lat;lon;timestamp;temperature;humidity
2639;DHT22;1329;51.384;7.122;2024-01-06T00:00:00;8.70;99.90
2639;DHT22;1329;51.384;7.122;2024-01-06T00:02:27;8.70;99.90
2639;DHT22;1329;51.384;7.122;2024-01-06T00:04:59;8.70;99.90
2639;DHT22;1329;51.384;7.122;2024-01-06T00:07:27;8.70;99.90
2639;DHT22;1329;51.384;7.122;2024-01-06T00:09:54;8.80;99.90
2639;DHT22;1329;51.384;7.122;2024-01-06T00:12:22;8.80;99.90
2639;DHT22;1329;51.384;7.122;2024-01-06T00:14:52;8.70;99.90
2639;DHT22;1329;51.384;7.122;2024-01-06T00:17:21;8.80;99.90
2639;DHT22;1329;51.384;7.122;2024-01-06T00:19:49;8.70;99.90
2639;DHT22;1329;51.384;7.122;2024-01-06T00:22:18;8.70;99.90
2639;DHT22;1329;51.384;7.122;2024-01-06T00:24:46;8.70;99.90
2639;DHT22;1329;51.384;7.122;2024-01-06T00:27:14;8.80;99.90
2639;DHT22;1329;51.384;7.122;2024-01-06T00:29:46;8.70;99.90
2639;DHT22;1329;51.384;7.122;2024-01-06T00:32:19;8.70;99.90
2639;DHT22;1329;51.384;7.122;2024-01-06T00:34:48;8.80;99.90
2639;DHT22;1329;51.384;7.122;2024-01-06T00:37:19;8.70;99.90
2639;DHT22;1329;51.384;7.122;2024-01-06T00:39:50;8.80;99.90
2639;DHT22;1329;51.384;7.122;2024-01-06T00:42:20;8.80;99.90
2639;DHT22;1329;51.384;7.122;2024-01-06T00:44:50;8.80;99.90
2639;DHT22;1329;51.384;7.122;2024-01-06T00:47:23;8.80;99.90
2639;DHT22;1329;51.384;7.122;2024-01-06T00:49:51;8.80;99.90
2639;DHT22;1329;51.384;7.122;2024-01-06T00:52:20;8.80;99.90
2639;DHT22;1329;51.384;7.122;2024-01-06T00:54:49;8.80;99.90
2639;DHT22;1329;51.384;7.122;2024-01-06T00:57:16;8.80;99.90
2639;DHT22;1329;51.384;7.122;2024-01-06T00:59:49;8.80;99.90
2639;DHT22;1329;51.384;7.122;2024-01-06T01:02:17;8.80;99.90
2639;DHT22;1329;51.384;7.122;2024-01-06T01:04:44;8.80;99.90
2639;DHT22;1329;51.384;7.122;2024-01-06T01:07:12;8.80;99.90
2639;DHT22;1329;51.384;7.122;2024-01-06T01:09:40;8.80;99.90
2639;DHT22;1329;51.384;7.122;2024-01-06T01:12:08;8.70;99.90
2639;DHT22;1329;51.384;7.122;2024-01-06T01:14:46;8.80;99.90
2639;DHT22;1329;51.384;7.122;2024-01-06T01:17:14;8.80;99.90
2639;DHT22;1329;51.384;7.122;2024-01-06T01:19:53;8.80;99.90
2639;DHT22;1329;51.384;7.122;2024-01-06T01:22:24;8.90;99.90
2639;DHT22;1329;51.384;7.122;2024-01-06T01:24:55;8.90;99.90
2639;DHT22;1329;51.384;7.122;2024-01-06T01:27:26;8.90;99.90
2639;DHT22;1329;51.384;7.122;2024-01-06T01:29:56;8.90;99.90
2639;DHT22;1329;51.384;7.122;2024-01-06T01:32:24;8.90;99.90
2639;DHT22;1329;51.384;7.122;2024-01-06T01:34:51;8.80;99.90
2639;DHT22;1329;51.384;7.122;2024-01-06T01:37:28;8.90;99.90
2639;DHT22;1329;51.384;7.122;2024-01-06T01:39:57;8.90;99.90
2639;DHT22;1329;51.384;7.122;2024-01-06T01:42:24;8.80;99.90
2639;DHT22;1329;51.384;7.122;2024-01-06T01:44:51;8.80;99.90
2639;DHT22;1329;51.384;7.122;2024-01-06T01:47:19;8.80;99.90
2639;DHT22;1329;51.384;7.122;2024-01-06T01:49:47;8.80;99.90
2639;DHT22;1329;51.384;7.122;2024-01-06T01:52:15;8.80;99.90
2639;DHT22;1329;51.384;7.122;2024-01-06T01:54:43;8.80;99.90
2639;DHT22;1329;51.384;7.122;2024-01-06T01:57:15;8.70;99.90
2639;DHT22;1329;51.384;7.122;2024-01-06T01:59:44;8.80;99.90
2639;DHT22;1329;51.384;7.122;2024-01-06T02:02:12;8.70;99.90
2639;DHT22;1329;51.384;7.122;2024-01-06T02:04:40;8.70;99.90
2639;DHT22;1329;51.384;7.122;2024-01-06T02:07:07;8.70;99.90
2639;DHT22;1329;51.384;7.122;2024-01-06T02:09:34;8.70;99.90
2639;DHT22;1329;51.384;7.122;2024-01-06T02:12:02;8.70;99.90
2639;DHT22;1329;51.384;7.122;2024-01-06T02:14:31;8.70;99.90
2639;DHT22;1329;51.384;7.122;2024-01-06T02:16:59;8.70;99.90
2639;DHT22;1329;51.384;7.122;2024-01-06T02:19:26;8.70;99.90
2639;DHT22;1329;51.384;7.122;2024-01-06T02:21:58;8.70;99.90
2639;DHT22;1329;51.384;7.122;2024-01-06T02:24:25;8.70;99.90
2639;DHT22;1329;51.384;7.122;2024-01-06T02:26:56;8.70;99.90
2639;DHT22;1329;51.384;7.122;2024-01-06T02:29:23;8.70;99.90
2639;DHT22;1329;51.384;7.122;2024-01-06T02:31:50;8.70;99.90
2639;DHT22;1329;51.384;7.122;2024-01-06T02:34:18;8.70;99.90
2639;DHT22;1329;51.384;7.122;2024-01-06T02:36:45;8.70;99.90
2639;DHT22;1329;51.384;7.122;2024-01-06T02:39:14;8.70;99.90
2639;DHT22;1329;51.384;7.122;2024-01-06T02:41:41;8.70;99.90
2639;DHT22;1329;51.384;7.122;2024-01-06T02:44:09;8.70;99.90
2639;DHT22;1329;51.384;7.122;2024-01-06T02:46:36;8.70;99.90
2639;DHT22;1329;51.384;7.122;2024-01-06T02:49:03;8.70;99.90
2639;DHT22;1329;51.384;7.122;2024-01-06T02:51:30;8.70;99.90
2639;DHT22;1329;51.384;7.122;2024-01-06T02:53:58;8.70;99.90
2639;DHT22;1329;51.384;7.122;2024-01-06T02:56:26;8.70;99.90
2639;DHT22;1329;51.384;7.122;2024-01-06T02:58:53;8.80;99.90
2639;DHT22;1329;51.384;7.122;2024-01-06T03:01:20;8.70;99.90
2639;DHT22;1329;51.384;7.122;2024-01-06T03:03:47;8.70;99.90
2639;DHT22;1329;51.384;7.122;2024-01-06T03:06:14;8.80;99.90
2639;DHT22;1329;51.384;7.122;2024-01-06T03:08:41;8.70;99.90
2639;DHT22;1329;51.384;7.122;2024-01-06T03:11:07;8.70;99.90
2639;DHT22;1329;51.384;7.122;2024-01-06T03:13:36;8.70;99.90
2639;DHT22;1329;51.384;7.122;2024-01-06T03:16:04;8.80;99.90
2639;DHT22;1329;51.384;7.122;2024-01-06T03:18:31;8.80;99.90
2639;DHT22;1329;51.384;7.122;2024-01-06T03:20:58;8.80;99.90
2639;DHT22;1329;51.384;7.122;2024-01-06T03:23:25;8.80;99.90
2639;DHT22;1329;51.384;7.122;2024-01-06T03:25:52;8.80;99.90
2639;DHT22;1329;51.384;7.122;2024-01-06T03:28:19;8.80;99.90
2639;DHT22;1329;51.384;7.122;2024-01-06T03:30:47;8.80;99.90
2639;DHT22;1329;51.384;7.122;2024-01-06T03:33:17;8.80;99.90
2639;DHT22;1329;51.384;7.122;2024-01-06T03:35:46;8.80;99.90
2639;DHT22;1329;51.384;7.122;2024-01-06T03:38:29;8.80;99.90
2639;DHT22;1329;51.384;7.122;2024-01-06T03:40:57;8.80;99.90
2639;DHT22;1329;51.384;7.122;2024-01-06T03:43:28;8.80;99.90
2639;DHT22;1329;51.384;7.122;2024-01-06T03:45:57;8.80;99.90
2639;DHT22;1329;51.384;7.122;2024-01-06T03:48:30;8.80;99.90
2639;DHT22;1329;51.384;7.122;2024-01-06T03:51:01;8.80;99.90
2639;DHT22;1329;51.384;7.122;2024-01-06T03:53:28;8.80;99.90
2639;DHT22;1329;51.384;7.122;2024-01-06T03:55:55;8.70;99.90
2639;DHT22;1329;51.384;7.122;2024-01-06T03:58:22;8.70;99.90
2639;DHT22;1329;51.384;7.122;2024-01-06T04:00:49;8.70;99.90
2639;DHT22;1329;51.384;7.122;2024-01-06T04:03:17;8.70;99.90
2639;DHT22;1329;51.384;7.122;2024-01-06T04:05:44;8.70;99.90
2639;DHT22;1329;51.384;7.122;2024-01-06T04:08:11;8.60;99.90
2639;DHT22;1329;51.384;7.122;2024-01-06T04:10:38;8.60;99.90
2639;DHT22;1329;51.384;7.122;2024-01-06T04:13:06;8.60;99.90
2639;DHT22;1329;51.384;7.122;2024-01-06T04:15:33;8.50;99.90
2639;DHT22;1329;51.384;7.122;2024-01-06T04:18:02;8.50;99.90
2639;DHT22;1329;51.384;7.122;2024-01-06T04:20:31;8.40;99.90
2639;DHT22;1329;51.384;7.122;2024-01-06T04:22:59;8.40;99.90
2639;DHT22;1329;51.384;7.122;2024-01-06T04:25:26;8.30;99.90
2639;DHT22;1329;51.384;7.122;2024-01-06T04:27:52;8.30;99.90
2639;DHT22;1329;51.384;7.122;2024-01-06T04:30:19;8.20;99.90
2639;DHT22;1329;51.384;7.122;2024-01-06T04:32:46;8.20;99.90
2639;DHT22;1329;51.384;7.122;2024-01-06T04:35:14;8.20;99.90
2639;DHT22;1329;51.384;7.122;2024-01-06T04:37:42;8.20;99.90
2639;DHT22;1329;51.384;7.122;2024-01-06T04:40:11;8.20;99.90
2639;DHT22;1329;51.384;7.122;2024-01-06T04:42:38;8.10;99.90
2639;DHT22;1329;51.384;7.122;2024-01-06T04:45:06;8.10;99.90
2639;DHT22;1329;51.384;7.122;2024-01-06T04:47:34;8.10;99.90
2639;DHT22;1329;51.384;7.122;2024-01-06T04:50:00;8.10;99.90
2639;DHT22;1329;51.384;7.122;2024-01-06T04:52:28;8.10;99.90
2639;DHT22;1329;51.384;7.122;2024-01-06T04:54:56;8.00;99.90
2639;DHT22;1329;51.384;7.122;2024-01-06T04:57:23;8.00;99.90
2639;DHT22;1329;51.384;7.122;2024-01-06T04:59:50;8.00;99.90
2639;DHT22;1329;51.384;7.122;2024-01-06T05:02:17;8.00;99.90
2639;DHT22;1329;51.384;7.122;2024-01-06T05:04:46;8.00;99.90
2639;DHT22;1329;51.384;7.122;2024-01-06T05:07:13;8.00;99.90
2639;DHT22;1329;51.384;7.122;2024-01-06T05:09:59;8.00;99.90
2639;DHT22;1329;51.384;7.122;2024-01-06T05:12:28;8.00;99.90
2639;DHT22;1329;51.384;7.122;2024-01-06T05:15:14;8.00;99.90
2639;DHT22;1329;51.384;7.122;2024-01-06T05:17:47;8.00;99.90
2639;DHT22;1329;51.384;7.122;2024-01-06T05:20:17;8.00;99.90
2639;DHT22;1329;51.384;7.122;2024-01-06T05:22:47;8.00;99.90
2639;DHT22;1329;51.384;7.122;2024-01-06T05:25:19;8.00;99.90
2639;DHT22;1329;51.384;7.122;2024-01-06T05:27:50;7.90;99.90
2639;DHT22;1329;51.384;7.122;2024-01-06T05:30:19;7.90;99.90
2639;DHT22;1329;51.384;7.122;2024-01-06T05:32:49;7.90;99.90
2639;DHT22;1329;51.384;7.122;2024-01-06T05:35:16;7.90;99.90
2639;DHT22;1329;51.384;7.122;2024-01-06T05:37:46;7.90;99.90
2639;DHT22;1329;51.384;7.122;2024-01-06T05:40:19;7.90;99.90
2639;DHT22;1329;51.384;7.122;2024-01-06T05:42:46;7.90;99.90
2639;DHT22;1329;51.384;7.122;2024-01-06T05:45:18;7.90;99.90
2639;DHT22;1329;51.384;7.122;2024-01-06T05:47:47;7.90;99.90
2639;DHT22;1329;51.384;7.122;2024-01-06T05:50:15;7.90;99.90
2639;DHT22;1329;51.384;7.122;2024-01-06T05:52:45;7.90;99.90
2639;DHT22;1329;51.384;7.122;2024-01-06T05:55:12;7.90;99.90
2639;DHT22;1329;51.384;7.122;2024-01-06T05:57:41;7.90;99.90
2639;DHT22;1329;51.384;7.122;2024-01-06T06:00:09;7.90;99.90
2639;DHT22;1329;51.384;7.122;2024-01-06T06:02:37;7.80;99.90
2639;DHT22;1329;51.384;7.122;2024-01-06T06:05:05;7.90;99.90
2639;DHT22;1329;51.384;7.122;2024-01-06T06:07:32;7.90;99.90
2639;DHT22;1329;51.384;7.122;2024-01-06T06:10:05;7.90;99.90
2639;DHT22;1329;51.384;7.122;2024-01-06T06:12:33;7.90;99.90
2639;DHT22;1329;51.384;7.122;2024-01-06T06:15:02;7.80;99.90
2639;DHT22;1329;51.384;7.122;2024-01-06T06:17:29;7.90;99.90
2639;DHT22;1329;51.384;7.122;2024-01-06T06:19:56;7.90;99.90
2639;DHT22;1329;51.384;7.122;2024-01-06T06:22:23;7.80;99.90
2639;DHT22;1329;51.384;7.122;2024-01-06T06:24:52;7.80;99.90
2639;DHT22;1329;51.384;7.122;2024-01-06T06:27:18;7.80;99.90
2639;DHT22;1329;51.384;7.122;2024-01-06T06:29:45;7.80;99.90
2639;DHT22;1329;51.384;7.122;2024-01-06T06:32:14;7.80;99.90
2639;DHT22;1329;51.384;7.122;2024-01-06T06:34:41;7.80;99.90
2639;DHT22;1329;51.384;7.122;2024-01-06T06:37:08;7.80;99.90
2639;DHT22;1329;51.384;7.122;2024-01-06T06:39:36;7.90;99.90
2639;DHT22;1329;51.384;7.122;2024-01-06T06:42:02;7.80;99.90
2639;DHT22;1329;51.384;7.122;2024-01-06T06:44:30;7.80;99.90
2639;DHT22;1329;51.384;7.122;2024-01-06T06:46:57;7.80;99.90
2639;DHT22;1329;51.384;7.122;2024-01-06T06:49:25;7.90;99.90
2639;DHT22;1329;51.384;7.122;2024-01-06T06:51:52;7.90;99.90
2639;DHT22;1329;51.384;7.122;2024-01-06T06:54:21;7.90;99.90
2639;DHT22;1329;51.384;7.122;2024-01-06T06:56:48;7.90;99.90
2639;DHT22;1329;51.384;7.122;2024-01-06T06:59:15;7.90;99.90
2639;DHT22;1329;51.384;7.122;2024-01-06T07:01:42;7.90;99.90
2639;DHT22;1329;51.384;7.122;2024-01-06T07:04:08;7.90;99.90
2639;DHT22;1329;51.384;7.122;2024-01-06T07:06:38;7.90;99.90
2639;DHT22;1329;51.384;7.122;2024-01-06T07:09:14;7.90;99.90
2639;DHT22;1329;51.384;7.122;2024-01-06T07:11:45;7.80;99.90
2639;DHT22;1329;51.384;7.122;2024-01-06T07:14:12;7.90;99.90
2639;DHT22;1329;51.384;7.122;2024-01-06T07:16:39;7.90;99.90
2639;DHT22;1329;51.384;7.122;2024-01-06T07:19:09;7.90;99.90
2639;DHT22;1329;51.384;7.122;2024-01-06T07:21:48;7.90;99.90
2639;DHT22;1329;51.384;7.122;2024-01-06T07:24:18;7.90;99.90
2639;DHT22;1329;51.384;7.122;2024-01-06T07:26:50;7.90;99.90
2639;DHT22;1329;51.384;7.122;2024-01-06T07:29:29;7.90;99.90
2639;DHT22;1329;51.384;7.122;2024-01-06T07:31:56;7.90;99.90
2639;DHT22;1329;51.384;7.122;2024-01-06T07:34:24;7.90;99.90
2639;DHT22;1329;51.384;7.122;2024-01-06T07:36:55;7.80;99.90
2639;DHT22;1329;51.384;7.122;2024-01-06T07:39:25;7.80;99.90
2639;DHT22;1329;51.384;7.122;2024-01-06T07:41:54;7.80;99.90
2639;DHT22;1329;51.384;7.122;2024-01-06T07:44:21;7.80;99.90
2639;DHT22;1329;51.384;7.122;2024-01-06T07:46:52;7.70;99.90
2639;DHT22;1329;51.384;7.122;2024-01-06T07:49:19;7.70;99.90
2639;DHT22;1329;51.384;7.122;2024-01-06T07:51:49;7.70;99.90
2639;DHT22;1329;51.384;7.122;2024-01-06T07:54:20;7.70;99.90
2639;DHT22;1329;51.384;7.122;2024-01-06T07:56:50;7.60;99.90
2639;DHT22;1329;51.384;7.122;2024-01-06T07:59:20;7.60;99.90
2639;DHT22;1329;51.384;7.122;2024-01-06T08:01:50;7.50;99.90
2639;DHT22;1329;51.384;7.122;2024-01-06T08:04:20;7.50;99.90
2639;DHT22;1329;51.384;7.122;2024-01-06T08:06:47;7.50;99.90
2639;DHT22;1329;51.384;7.122;2024-01-06T08:09:14;7.50;99.90
2639;DHT22;1329;51.384;7.122;2024-01-06T08:11:49;7.50;99.90
2639;DHT22;1329;51.384;7.122;2024-01-06T08:14:16;7.50;99.90
2639;DHT22;1329;51.384;7.122;2024-01-06T08:16:43;7.40;99.90
2639;DHT22;1329;51.384;7.122;2024-01-06T08:19:10;7.40;99.90
2639;DHT22;1329;51.384;7.122;2024-01-06T08:21:37;7.40;99.90
2639;DHT22;1329;51.384;7.122;2024-01-06T08:24:07;7.30;99.90
2639;DHT22;1329;51.384;7.122;2024-01-06T08:26:37;7.30;99.90
2639;DHT22;1329;51.384;7.122;2024-01-06T08:29:15;7.30;99.90
2639;DHT22;1329;51.384;7.122;2024-01-06T08:31:44;7.30;99.90
2639;DHT22;1329;51.384;7.122;2024-01-06T08:34:12;7.30;99.90
2639;DHT22;1329;51.384;7.122;2024-01-06T08:36:42;7.30;99.90
2639;DHT22;1329;51.384;7.122;2024-01-06T08:39:11;7.20;99.90
2639;DHT22;1329;51.384;7.122;2024-01-06T08:41:39;7.20;99.90
2639;DHT22;1329;51.384;7.122;2024-01-06T08:44:10;7.20;99.90
2639;DHT22;1329;51.384;7.122;2024-01-06T08:46:44;7.30;99.90
2639;DHT22;1329;51.384;7.122;2024-01-06T08:49:14;7.20;99.90
2639;DHT22;1329;51.384;7.122;2024-01-06T08:51:46;7.20;99.90
2639;DHT22;1329;51.384;7.122;2024-01-06T08:54:16;7.20;99.90
2639;DHT22;1329;51.384;7.122;2024-01-06T08:56:57;7.20;99.90
2639;DHT22;1329;51.384;7.122;2024-01-06T08:59:28;7.20;99.90
2639;DHT22;1329;51.384;7.122;2024-01-06T09:01:58;7.20;99.90
2639;DHT22;1329;51.384;7.122;2024-01-06T09:04:29;7.20;99.90
2639;DHT22;1329;51.384;7.122;2024-01-06T09:06:56;7.30;99.90
2639;DHT22;1329;51.384;7.122;2024-01-06T09:09:23;7.20;99.90
2639;DHT22;1329;51.384;7.122;2024-01-06T09:11:53;7.20;99.90
2639;DHT22;1329;51.384;7.122;2024-01-06T09:17:11;7.20;99.90
2639;DHT22;1329;51.384;7.122;2024-01-06T09:19:39;7.20;99.90
2639;DHT22;1329;51.384;7.122;2024-01-06T09:22:16;7.20;99.90
2639;DHT22;1329;51.384;7.122;2024-01-06T09:24:46;7.20;99.90
2639;DHT22;1329;51.384;7.122;2024-01-06T09:27:15;7.20;99.90
2639;DHT22;1329;51.384;7.122;2024-01-06T09:29:50;7.20;99.90
2639;DHT22;1329;51.384;7.122;2024-01-06T09:32:17;7.20;99.90
2639;DHT22;1329;51.384;7.122;2024-01-06T09:34:47;7.30;99.90
2639;DHT22;1329;51.384;7.122;2024-01-06T09:37:17;7.20;99.90
2639;DHT22;1329;51.384;7.122;2024-01-06T09:39:46;7.20;99.90
2639;DHT22;1329;51.384;7.122;2024-01-06T09:42:16;7.30;99.90
2639;DHT22;1329;51.384;7.122;2024-01-06T09:44:48;7.30;99.90
2639;DHT22;1329;51.384;7.122;2024-01-06T09:47:18;7.30;99.90
2639;DHT22;1329;51.384;7.122;2024-01-06T09:49:49;7.30;99.90
2639;DHT22;1329;51.384;7.122;2024-01-06T09:52:21;7.30;99.90
2639;DHT22;1329;51.384;7.122;2024-01-06T09:54:51;7.30;99.90
2639;DHT22;1329;51.384;7.122;2024-01-06T09:57:20;7.20;99.90
2639;DHT22;1329;51.384;7.122;2024-01-06T09:59:48;7.20;99.90
2639;DHT22;1329;51.384;7.122;2024-01-06T10:02:16;7.20;99.90
2639;DHT22;1329;51.384;7.122;2024-01-06T10:04:50;7.20;99.90
2639;DHT22;1329;51.384;7.122;2024-01-06T10:07:18;7.20;99.90
2639;DHT22;1329;51.384;7.122;2024-01-06T10:09:48;7.20;99.90
2639;DHT22;1329;51.384;7.122;2024-01-06T10:12:15;7.20;99.90
2639;DHT22;1329;51.384;7.122;2024-01-06T10:14:46;7.20;99.90
2639;DHT22;1329;51.384;7.122;2024-01-06T10:17:22;7.30;99.90
2639;DHT22;1329;51.384;7.122;2024-01-06T10:19:49;7.30;99.90
2639;DHT22;1329;51.384;7.122;2024-01-06T10:22:20;7.20;99.90
2639;DHT22;1329;51.384;7.122;2024-01-06T10:24:49;7.20;99.90
2639;DHT22;1329;51.384;7.122;2024-01-06T10:27:29;7.20;99.90
2639;DHT22;1329;51.384;7.122;2024-01-06T10:29:59;7.20;99.90
2639;DHT22;1329;51.384;7.122;2024-01-06T10:32:27;7.20;99.90
2639;DHT22;1329;51.384;7.122;2024-01-06T10:35:01;7.10;99.90
2639;DHT22;1329;51.384;7.122;2024-01-06T10:37:32;7.10;99.90
2639;DHT22;1329;51.384;7.122;2024-01-06T10:40:07;7.20;99.90
2639;DHT22;1329;51.384;7.122;2024-01-06T10:42:38;7.10;99.90
2639;DHT22;1329;51.384;7.122;2024-01-06T10:45:09;7.10;99.90
2639;DHT22;1329;51.384;7.122;2024-01-06T10:47:37;7.10;99.90
2639;DHT22;1329;51.384;7.122;2024-01-06T10:50:08;7.10;99.90
2639;DHT22;1329;51.384;7.122;2024-01-06T10:52:41;7.00;99.90
2639;DHT22;1329;51.384;7.122;2024-01-06T10:55:14;7.00;99.90
2639;DHT22;1329;51.384;7.122;2024-01-06T10:57:56;7.00;99.90
2639;DHT22;1329;51.384;7.122;2024-01-06T11:00:27;6.90;99.90
2639;DHT22;1329;51.384;7.122;2024-01-06T11:02:55;6.90;99.90
2639;DHT22;1329;51.384;7.122;2024-01-06T11:05:23;6.80;99.90
2639;DHT22;1329;51.384;7.122;2024-01-06T11:07:53;6.80;99.90
2639;DHT22;1329;51.384;7.122;2024-01-06T11:10:25;6.70;99.90
2639;DHT22;1329;51.384;7.122;2024-01-06T11:13:11;6.70;99.90
2639;DHT22;1329;51.384;7.122;2024-01-06T11:15:44;6.60;99.90
2639;DHT22;1329;51.384;7.122;2024-01-06T11:18:33;6.60;99.90
2639;DHT22;1329;51.384;7.122;2024-01-06T11:21:18;6.60;99.90
2639;DHT22;1329;51.384;7.122;2024-01-06T11:24:18;6.50;99.90
2639;DHT22;1329;51.384;7.122;2024-01-06T11:26:55;6.50;99.90
2639;DHT22;1329;51.384;7.122;2024-01-06T11:29:23;6.50;99.90
2639;DHT22;1329;51.384;7.122;2024-01-06T11:32:17;6.40;99.90
2639;DHT22;1329;51.384;7.122;2024-01-06T11:34:50;6.40;99.90
2639;DHT22;1329;51.384;7.122;2024-01-06T11:37:34;6.50;99.90
2639;DHT22;1329;51.384;7.122;2024-01-06T11:40:07;6.50;99.90
2639;DHT22;1329;51.384;7.122;2024-01-06T11:42:41;6.40;99.90
2639;DHT22;1329;51.384;7.122;2024-01-06T11:45:08;6.40;99.90
2639;DHT22;1329;51.384;7.122;2024-01-06T11:47:48;6.40;99.90
2639;DHT22;1329;51.384;7.122;2024-01-06T11:50:17;6.40;99.90
2639;DHT22;1329;51.384;7.122;2024-01-06T11:52:55;6.40;99.90
2639;DHT22;1329;51.384;7.122;2024-01-06T11:55:28;6.40;99.90
2639;DHT22;1329;51.384;7.122;2024-01-06T11:58:03;6.40;99.90
2639;DHT22;1329;51.384;7.122;2024-01-06T12:00:31;6.40;99.90
2639;DHT22;1329;51.384;7.122;2024-01-06T12:03:01;6.40;99.90
2639;DHT22;1329;51.384;7.122;2024-01-06T12:05:28;6.30;99.90
2639;DHT22;1329;51.384;7.122;2024-01-06T12:07:56;6.30;99.90
2639;DHT22;1329;51.384;7.122;2024-01-06T12:10:26;6.40;99.90
2639;DHT22;1329;51.384;7.122;2024-01-06T12:12:58;6.40;99.90
2639;DHT22;1329;51.384;7.122;2024-01-06T12:15:26;6.40;99.90
2639;DHT22;1329;51.384;7.122;2024-01-06T12:17:54;6.40;99.90
2639;DHT22;1329;51.384;7.122;2024-01-06T12:20:23;6.40;99.90
2639;DHT22;1329;51.384;7.122;2024-01-06T12:22:51;6.40;99.90
2639;DHT22;1329;51.384;7.122;2024-01-06T12:25:34;6.40;99.90
2639;DHT22;1329;51.384;7.122;2024-01-06T12:28:05;6.40;99.90
2639;DHT22;1329;51.384;7.122;2024-01-06T12:30:35;6.40;99.90
2639;DHT22;1329;51.384;7.122;2024-01-06T12:33:04;6.40;99.90
2639;DHT22;1329;51.384;7.122;2024-01-06T12:35:38;6.40;99.90
2639;DHT22;1329;51.384;7.122;2024-01-06T12:38:06;6.40;99.90
2639;DHT22;1329;51.384;7.122;2024-01-06T12:40:40;6.40;99.90
2639;DHT22;1329;51.384;7.122;2024-01-06T12:43:08;6.40;99.90
2639;DHT22;1329;51.384;7.122;2024-01-06T12:45:35;6.40;99.90
2639;DHT22;1329;51.384;7.122;2024-01-06T12:48:08;6.30;99.90
2639;DHT22;1329;51.384;7.122;2024-01-06T12:50:39;6.30;99.90
2639;DHT22;1329;51.384;7.122;2024-01-06T12:53:07;6.20;99.90
2639;DHT22;1329;51.384;7.122;2024-01-06T12:55:34;6.20;99.90
2639;DHT22;1329;51.384;7.122;2024-01-06T12:58:02;6.20;99.90
2639;DHT22;1329;51.384;7.122;2024-01-06T13:00:34;6.20;99.90
2639;DHT22;1329;51.384;7.122;2024-01-06T13:03:01;6.10;99.90
2639;DHT22;1329;51.384;7.122;2024-01-06T13:05:29;6.10;99.90
2639;DHT22;1329;51.384;7.122;2024-01-06T13:08:01;6.10;99.90
2639;DHT22;1329;51.384;7.122;2024-01-06T13:10:29;6.10;99.90
2639;DHT22;1329;51.384;7.122;2024-01-06T13:12:56;6.10;99.90
2639;DHT22;1329;51.384;7.122;2024-01-06T13:15:24;6.10;99.90
2639;DHT22;1329;51.384;7.122;2024-01-06T13:17:51;6.10;99.90
2639;DHT22;1329;51.384;7.122;2024-01-06T13:20:19;6.20;99.90
2639;DHT22;1329;51.384;7.122;2024-01-06T13:22:52;6.20;99.90
2639;DHT22;1329;51.384;7.122;2024-01-06T13:25:25;6.20;99.90
2639;DHT22;1329;51.384;7.122;2024-01-06T13:27:54;6.20;99.90
2639;DHT22;1329;51.384;7.122;2024-01-06T13:30:22;6.20;99.90
2639;DHT22;1329;51.384;7.122;2024-01-06T13:32:53;6.20;99.90
2639;DHT22;1329;51.384;7.122;2024-01-06T13:35:21;6.20;99.90
2639;DHT22;1329;51.384;7.122;2024-01-06T13:37:50;6.30;99.90
2639;DHT22;1329;51.384;7.122;2024-01-06T13:40:21;6.20;99.90
2639;DHT22;1329;51.384;7.122;2024-01-06T13:42:51;6.30;99.90
2639;DHT22;1329;51.384;7.122;2024-01-06T13:45:19;6.20;99.90
2639;DHT22;1329;51.384;7.122;2024-01-06T13:47:47;6.20;99.90
2639;DHT22;1329;51.384;7.122;2024-01-06T13:50:17;6.10;99.90
2639;DHT22;1329;51.384;7.122;2024-01-06T13:52:45;6.20;99.90
2639;DHT22;1329;51.384;7.122;2024-01-06T13:55:14;6.20;99.90
2639;DHT22;1329;51.384;7.122;2024-01-06T13:57:45;6.20;99.90
2639;DHT22;1329;51.384;7.122;2024-01-06T14:00:17;6.10;99.90
2639;DHT22;1329;51.384;7.122;2024-01-06T14:02:58;6.20;99.90
2639;DHT22;1329;51.384;7.122;2024-01-06T14:05:28;6.20;99.90
2639;DHT22;1329;51.384;7.122;2024-01-06T14:07:58;6.20;99.90
2639;DHT22;1329;51.384;7.122;2024-01-06T14:10:26;6.20;99.90
2639;DHT22;1329;51.384;7.122;2024-01-06T14:12:59;6.20;99.90
2639;DHT22;1329;51.384;7.122;2024-01-06T14:15:28;6.10;99.90
2639;DHT22;1329;51.384;7.122;2024-01-06T14:18:03;6.10;99.90
2639;DHT22;1329;51.384;7.122;2024-01-06T14:20:31;6.10;99.90
2639;DHT22;1329;51.384;7.122;2024-01-06T14:23:09;6.10;99.90
2639;DHT22;1329;51.384;7.122;2024-01-06T14:25:37;6.00;99.90
2639;DHT22;1329;51.384;7.122;2024-01-06T14:28:06;6.00;99.90
2639;DHT22;1329;51.384;7.122;2024-01-06T14:30:35;6.00;99.90
2639;DHT22;1329;51.384;7.122;2024-01-06T14:33:09;6.00;99.90
2639;DHT22;1329;51.384;7.122;2024-01-06T14:35:42;5.90;99.90
2639;DHT22;1329;51.384;7.122;2024-01-06T14:38:18;6.00;99.90
2639;DHT22;1329;51.384;7.122;2024-01-06T14:40:49;5.90;99.90
2639;DHT22;1329;51.384;7.122;2024-01-06T14:43:21;5.90;99.90
2639;DHT22;1329;51.384;7.122;2024-01-06T14:45:50;5.90;99.90
2639;DHT22;1329;51.384;7.122;2024-01-06T14:48:18;5.90;99.90
2639;DHT22;1329;51.384;7.122;2024-01-06T14:50:46;5.90;99.90
2639;DHT22;1329;51.384;7.122;2024-01-06T14:53:14;5.90;99.90
2639;DHT22;1329;51.384;7.122;2024-01-06T14:55:41;5.80;99.90
2639;DHT22;1329;51.384;7.122;2024-01-06T14:58:09;5.80;99.90
2639;DHT22;1329;51.384;7.122;2024-01-06T15:00:36;5.80;99.90
2639;DHT22;1329;51.384;7.122;2024-01-06T15:03:05;5.80;99.90
2639;DHT22;1329;51.384;7.122;2024-01-06T15:05:33;5.70;99.90
2639;DHT22;1329;51.384;7.122;2024-01-06T15:08:01;5.70;99.90
2639;DHT22;1329;51.384;7.122;2024-01-06T15:10:29;5.70;99.90
2639;DHT22;1329;51.384;7.122;2024-01-06T15:12:56;5.70;99.90
2639;DHT22;1329;51.384;7.122;2024-01-06T15:15:24;5.70;99.90
2639;DHT22;1329;51.384;7.122;2024-01-06T15:18:01;5.80;99.90
2639;DHT22;1329;51.384;7.122;2024-01-06T15:20:34;5.80;99.90
2639;DHT22;1329;51.384;7.122;2024-01-06T15:23:02;5.80;99.90
2639;DHT22;1329;51.384;7.122;2024-01-06T15:25:31;5.80;99.90
2639;DHT22;1329;51.384;7.122;2024-01-06T15:27:58;5.80;99.90
2639;DHT22;1329;51.384;7.122;2024-01-06T15:30:26;5.80;99.90
2639;DHT22;1329;51.384;7.122;2024-01-06T15:32:54;5.80;99.90
2639;DHT22;1329;51.384;7.122;2024-01-06T15:35:23;5.80;99.90
2639;DHT22;1329;51.384;7.122;2024-01-06T15:37:50;5.80;99.90
2639;DHT22;1329;51.384;7.122;2024-01-06T15:40:23;5.70;99.90
2639;DHT22;1329;51.384;7.122;2024-01-06T15:42:51;5.70;99.90
2639;DHT22;1329;51.384;7.122;2024-01-06T15:45:19;5.70;99.90
2639;DHT22;1329;51.384;7.122;2024-01-06T15:47:47;5.70;99.90
2639;DHT22;1329;51.384;7.122;2024-01-06T15:50:14;5.70;99.90
2639;DHT22;1329;51.384;7.122;2024-01-06T15:52:43;5.70;99.90
2639;DHT22;1329;51.384;7.122;2024-01-06T15:55:12;5.70;99.90
2639;DHT22;1329;51.384;7.122;2024-01-06T15:57:39;5.70;99.90
2639;DHT22;1329;51.384;7.122;2024-01-06T16:00:08;5.70;99.90
2639;DHT22;1329;51.384;7.122;2024-01-06T16:02:37;5.70;99.90
2639;DHT22;1329;51.384;7.122;2024-01-06T16:05:05;5.70;99.90
2639;DHT22;1329;51.384;7.122;2024-01-06T16:07:33;5.70;99.90
2639;DHT22;1329;51.384;7.122;2024-01-06T16:10:03;5.70;99.90
2639;DHT22;1329;51.384;7.122;2024-01-06T16:12:32;5.70;99.90
2639;DHT22;1329;51.384;7.122;2024-01-06T16:14:59;5.70;99.90
2639;DHT22;1329;51.384;7.122;2024-01-06T16:17:26;5.60;99.90
2639;DHT22;1329;51.384;7.122;2024-01-06T16:19:53;5.60;99.90
2639;DHT22;1329;51.384;7.122;2024-01-06T16:22:20;5.60;99.90
2639;DHT22;1329;51.384;7.122;2024-01-06T16:24:48;5.60;99.90
2639;DHT22;1329;51.384;7.122;2024-01-06T16:27:17;5.50;99.90
2639;DHT22;1329;51.384;7.122;2024-01-06T16:29:44;5.50;99.90
2639;DHT22;1329;51.384;7.122;2024-01-06T16:32:12;5.50;99.90
2639;DHT22;1329;51.384;7.122;2024-01-06T16:34:39;5.50;99.90